• Join FlightAware (Why Join?)
  • Login
  • US Flag 
11:29AM EST


 

Airport Tracker/Info


-or-


 

Live Flight TrackerFlight Track Log ✈ CPT8773 ✈ 29-Nov-2013 ✈ KCPR - KCOD

Flight Track Log - Related Links

Times and Time Zones

All times are in EST time to prevent confusion due to time zone crossing. See the CPT8773 flight status page for this flight to view local times or setup timezone preferences in your user account.

Time Position Orientation Groundspeed Altitude Reporting Facility
EST Latitude Longitude Course Direction KTS MPH feet Rate Location/Type
09:54AM 42.9589 -106.5053 347° North 123 142 8,200  Level Salt Lake Center
09:55AM 42.9906 -106.5086 356° North 119 137 8,900 660 Climbing Salt Lake Center
09:56AM 43.0217 -106.5131 354° North 119 137 9,600 720 Climbing Salt Lake Center
09:57AM 43.0410 -106.6671 307° West  Level Estimated
09:57AM 43.0633 -106.5133 360° North 118 136 10,500  Level Denver Center
09:58AM 43.0798 -106.6796 347° North  Level FlightAware Approximate
09:58AM 43.0958 -106.5161 356° North 119 137 11,000  Level Denver Center
09:59AM 43.1186 -106.6920 347° North  Level FlightAware Approximate
09:59AM 43.1258 -106.5197 355° North 117 135 11,600  Level Denver Center
10:00AM 43.1661 -106.5208 359° North 125 144 12,000 180 Climbing Denver Center
10:01AM 43.2067 -106.5267 354° North 145 167 12,000  Level Denver Center
10:02AM 43.2367 -106.5444 337° Northwest 151 174 12,000  Level Denver Center
10:03AM 43.2614 -106.6056 299° West 144 166 12,000  Level Denver Center
10:04AM 43.2803 -106.6444 304° West 148 170 12,000  Level Salt Lake Center
10:05AM 43.3036 -106.6875 307° West 148 170 12,000  Level Salt Lake Center
10:06AM 43.3308 -106.7378 307° West 147 169 12,000  Level Salt Lake Center
10:07AM 43.3544 -106.7817 307° West 149 171 12,000  Level Salt Lake Center
10:08AM 43.3764 -106.8239 306° West 145 167 12,100  Climbing Salt Lake Center
10:09AM 43.4025 -106.8736 306° West 144 166 12,000 -60 Descending Salt Lake Center
10:10AM 43.4256 -106.9192 305° West 149 171 12,000  Level Salt Lake Center
10:11AM 43.4486 -106.9644 305° West 145 167 12,100  Climbing Salt Lake Center
10:12AM 43.4733 -107.0111 306° West 149 171 12,100  Level Salt Lake Center
10:13AM 43.4972 -107.0581 305° West 151 174 12,100 -60 Level Salt Lake Center
10:14AM 43.5222 -107.1047 306° West 151 174 12,000  Descending Salt Lake Center
10:15AM 43.5453 -107.1517 304° West 150 173 12,100  Climbing Salt Lake Center
10:16AM 43.5694 -107.1953 307° West 145 167 12,000  Descending Salt Lake Center
10:17AM 43.5928 -107.2389 306° West 142 163 12,100  Climbing Salt Lake Center
10:18AM 43.6158 -107.2836 305° West 143 165 12,100  Level Salt Lake Center
10:19AM 43.6400 -107.3272 307° West 143 165 12,100  Level Salt Lake Center
10:20AM 43.6642 -107.3725 306° West 145 167 12,100  Level Salt Lake Center
10:21AM 43.6925 -107.4247 307° West 144 166 12,100  Level Salt Lake Center
10:22AM 43.7172 -107.4683 308° West 144 166 12,100  Level Salt Lake Center
10:23AM 43.7406 -107.5131 306° West 144 166 12,100  Level Salt Lake Center
10:24AM 43.7636 -107.5592 305° West 144 166 12,100  Level Salt Lake Center
10:25AM 43.7867 -107.6042 305° West 144 166 12,100  Level Salt Lake Center
10:26AM 43.8097 -107.6467 307° West 142 163 12,100  Level Salt Lake Center
10:27AM 43.8325 -107.6903 306° West 141 162 12,100  Level Salt Lake Center
10:28AM 43.8564 -107.7350 307° West 142 163 12,100  Level Salt Lake Center
10:29AM 43.8794 -107.7786 306° West 142 163 12,100  Level Salt Lake Center
10:30AM 43.9025 -107.8233 306° West 142 163 12,100  Level Salt Lake Center
10:31AM 43.9261 -107.8689 306° West 143 165 12,100  Level Salt Lake Center
10:32AM 43.9497 -107.9136 306° West 144 166 12,100  Level Salt Lake Center
10:33AM 43.9725 -107.9569 306° West 142 163 12,100  Level Salt Lake Center
10:34AM 43.9950 -107.9994 306° West 140 161 12,100 -180 Level Salt Lake Center
10:35AM 44.0233 -108.0533 306° West 141 162 11,800 -300 Descending Salt Lake Center
10:36AM 44.0481 -108.0986 307° West 143 165 11,600 -300 Descending Salt Lake Center
10:37AM 44.0725 -108.1461 306° West 147 169 11,200 -360 Descending Salt Lake Center
10:38AM 44.0983 -108.1933 307° West 150 173 10,900 -360 Descending Salt Lake Center
10:39AM 44.1242 -108.2433 306° West 153 176 10,500 -360 Descending Salt Lake Center
10:40AM 44.1508 -108.2933 307° West 157 181 10,200 -240 Descending Salt Lake Center
10:41AM 44.1756 -108.3436 304° West 158 182 10,100 -120 Descending Salt Lake Center
10:42AM 44.1992 -108.3925 304° West 156 180 10,000 -60 Descending Salt Lake Center
10:43AM 44.2203 -108.4400 302° West 152 175 10,000  Level Salt Lake Center
10:44AM 44.2442 -108.4869 305° West 149 171 10,000  Level Salt Lake Center
10:45AM 44.2694 -108.5311 309° West 148 170 10,000  Level Salt Lake Center
10:46AM 44.2936 -108.5778 306° West 147 169 10,000  Level Salt Lake Center
10:47AM 44.3169 -108.6242 305° West 147 169 10,000  Level Salt Lake Center